Time;durP1;ratioP1;P1;durP2;ratioP2;P2;SDS_P1;SDS_P2;PMS_P1;PMS_P2;Temp;Humidity;BMP_temperature;BMP_pressure;BME280_temperature;BME280_humidity;BME280_pressure;Samples;Min_cycle;Max_cycle;Signal;HPM_P1;HPM_P2
2023/01/17 00:01:09;;;;;;;4.85;1.60;;;;;;;5.60;63.81;94376.34;4942226;28;20954;-75
2023/01/17 00:09:51;;;;;;;4.30;1.73;;;;;;;5.49;64.20;94372.38;4945868;28;20104;-74
2023/01/17 00:11:58;;;;;;;2.95;1.80;;;;;;;5.27;64.15;94369.59;4948910;28;20032;-75
2023/01/17 00:14:24;;;;;;;4.18;1.60;;;;;;;5.09;64.79;94373.69;4949821;28;20043;-75
2023/01/17 00:16:49;;;;;;;2.95;1.35;;;;;;;5.14;65.58;94376.19;4930719;28;20113;-74
2023/01/17 01:33:41;;;;;;;3.45;2.10;;;;;;;5.56;64.86;94436.53;4944625;28;19916;-75
2023/01/17 01:36:07;;;;;;;4.93;2.45;;;;;;;5.50;65.05;94432.47;4917314;28;20772;-75
2023/01/17 01:38:33;;;;;;;4.13;2.28;;;;;;;5.50;64.84;94429.91;4942030;28;20026;-75
2023/01/17 01:40:58;;;;;;;3.88;2.30;;;;;;;5.50;64.71;94429.91;4933458;28;20037;-75
2023/01/17 01:43:49;;;;;;;5.22;2.40;;;;;;;5.71;64.05;94451.81;4946150;28;20718;-74
2023/01/17 01:46:35;;;;;;;4.00;2.28;;;;;;;5.52;65.64;94441.50;4944649;28;20037;-74
2023/01/17 01:49:16;;;;;;;5.25;2.28;;;;;;;5.77;65.33;94449.91;4915751;28;20021;-75
2023/01/17 01:51:45;;;;;;;3.95;1.95;;;;;;;5.63;64.60;94435.13;4947297;28;20037;-75
2023/01/17 01:54:14;;;;;;;3.80;2.03;;;;;;;5.56;65.22;94441.69;4929754;28;20025;-75
2023/01/17 01:56:39;;;;;;;4.18;2.30;;;;;;;5.60;64.87;94443.44;4948890;28;20256;-75
2023/01/17 01:59:07;;;;;;;6.22;2.15;;;;;;;5.55;64.86;94443.53;4947441;28;20110;-74
2023/01/17 02:01:33;;;;;;;5.25;2.30;;;;;;;5.54;65.23;94441.97;4932376;28;20030;-74
2023/01/17 02:03:59;;;;;;;3.55;2.25;;;;;;;5.61;64.65;94454.53;4928526;28;20026;-74
2023/01/17 02:06:28;;;;;;;4.22;2.22;;;;;;;5.49;64.74;94451.59;4925384;28;20302;-75
2023/01/17 02:08:57;;;;;;;4.53;2.13;;;;;;;5.46;65.00;94450.34;4921418;28;20091;-74
2023/01/17 02:11:22;;;;;;;4.85;2.35;;;;;;;5.31;65.30;94453.88;4936829;28;20187;-74
2023/01/17 02:13:47;;;;;;;5.53;2.38;;;;;;;5.35;65.44;94447.13;4953709;28;20160;-73
2023/01/17 02:16:25;;;;;;;6.00;2.50;;;;;;;5.53;65.08;94450.75;4953316;28;20473;-74
2023/01/17 02:19:06;;;;;;;4.57;2.47;;;;;;;5.70;64.79;94444.34;4937316;28;20733;-74
2023/01/17 02:21:58;;;;;;;4.88;2.28;;;;;;;5.80;64.66;94447.53;4947485;28;20034;-74
2023/01/17 02:25:08;;;;;;;6.13;2.65;;;;;;;5.67;64.31;94448.22;4930835;28;20108;-74
2023/01/17 02:28:23;;;;;;;4.55;2.70;;;;;;;5.41;65.13;94443.41;4959235;28;20808;-75
2023/01/17 02:30:53;;;;;;;4.88;2.40;;;;;;;5.68;65.09;94447.19;4911254;28;20286;-75
2023/01/17 02:33:27;;;;;;;5.80;2.83;;;;;;;5.66;65.21;94445.97;4930642;28;20274;-76
2023/01/17 02:35:57;;;;;;;6.25;2.80;;;;;;;5.63;65.41;94445.44;4947503;28;20264;-76
2023/01/17 02:39:15;;;;;;;7.22;2.95;;;;;;;5.62;64.87;94448.31;4929808;28;20277;-74
2023/01/17 02:41:43;;;;;;;7.22;2.75;;;;;;;5.69;64.97;94443.59;4924564;28;20291;-76
2023/01/17 02:44:10;;;;;;;4.38;2.63;;;;;;;5.53;65.63;94447.41;4930673;28;20274;-75
2023/01/17 02:47:14;;;;;;;6.93;3.35;;;;;;;5.80;65.01;94460.44;4946529;28;20297;-75
2023/01/17 02:49:40;;;;;;;4.68;2.20;;;;;;;5.58;65.66;94448.09;4921311;28;20754;-76
2023/01/17 02:52:14;;;;;;;4.32;2.35;;;;;;;5.76;64.49;94454.31;4942281;28;20340;-75
2023/01/17 02:54:54;;;;;;;4.82;2.67;;;;;;;5.70;65.21;94455.44;4929729;28;20165;-75
2023/01/17 02:57:23;;;;;;;4.80;2.67;;;;;;;5.76;64.76;94449.16;4926617;28;20200;-76
2023/01/17 03:00:22;;;;;;;5.00;2.58;;;;;;;5.93;63.98;94451.22;4944102;28;20276;-76
2023/01/17 03:02:47;;;;;;;6.88;3.15;;;;;;;5.78;64.91;94461.78;4924768;28;20203;-76
2023/01/17 03:05:19;;;;;;;4.72;2.60;;;;;;;5.80;64.35;94454.53;4945420;28;20223;-76
2023/01/17 03:07:47;;;;;;;7.05;2.78;;;;;;;5.67;65.43;94445.66;4930342;28;20215;-76
2023/01/17 03:10:15;;;;;;;4.03;2.45;;;;;;;5.73;65.00;94448.94;4912973;28;20196;-76
2023/01/17 03:12:41;;;;;;;8.60;3.08;;;;;;;5.44;65.33;94450.63;4943459;28;20165;-75
2023/01/17 03:15:11;;;;;;;6.13;3.05;;;;;;;5.69;65.24;94451.31;4929117;28;20251;-76
2023/01/17 03:17:40;;;;;;;6.65;3.30;;;;;;;5.72;65.51;94447.41;4944227;28;20641;-75
2023/01/17 03:20:06;;;;;;;4.88;2.88;;;;;;;5.73;64.85;94454.13;4927162;28;20194;-75
2023/01/17 03:22:31;;;;;;;4.47;2.63;;;;;;;5.51;65.13;94447.69;4946446;28;20203;-75
2023/01/17 03:25:23;;;;;;;6.03;2.60;;;;;;;5.59;64.47;94447.06;4930226;28;20490;-75
2023/01/17 03:27:48;;;;;;;5.20;2.55;;;;;;;5.54;65.40;94449.72;4928388;28;20334;-75
2023/01/17 03:30:14;;;;;;;6.55;3.08;;;;;;;5.50;65.23;94453.13;4936755;28;20365;-74
2023/01/17 03:32:40;;;;;;;3.55;2.25;;;;;;;5.30;65.86;94441.28;4942944;28;20500;-75
2023/01/17 03:35:06;;;;;;;5.72;2.80;;;;;;;5.61;65.02;94449.38;4929598;28;20286;-75
2023/01/17 03:37:31;;;;;;;6.63;2.63;;;;;;;5.52;64.62;94444.06;4946285;28;20741;-75
2023/01/17 03:39:56;;;;;;;4.68;2.55;;;;;;;5.67;64.64;94450.81;4947104;28;20211;-75
2023/01/17 03:42:22;;;;;;;5.53;2.10;;;;;;;5.23;64.71;94442.38;4929199;28;20192;-75
2023/01/17 03:44:47;;;;;;;6.85;3.05;;;;;;;5.51;64.70;94446.94;4943885;28;20281;-76
2023/01/17 03:47:13;;;;;;;5.57;2.35;;;;;;;5.52;64.99;94438.91;4913086;28;20319;-76
2023/01/17 03:49:38;;;;;;;4.10;2.40;;;;;;;5.56;64.13;94432.13;4943624;28;20187;-75
2023/01/17 03:52:04;;;;;;;7.32;2.53;;;;;;;5.65;64.54;94442.59;4934983;28;20281;-76
2023/01/17 03:54:30;;;;;;;4.45;2.63;;;;;;;5.69;63.79;94443.59;4924904;28;20612;-76
2023/01/17 03:56:55;;;;;;;6.45;2.60;;;;;;;5.68;63.52;94436.13;4941515;28;20652;-76
2023/01/17 03:59:20;;;;;;;7.00;2.20;;;;;;;5.55;64.09;94447.91;4945270;28;20286;-76
2023/01/17 04:01:46;;;;;;;3.50;1.90;;;;;;;5.60;63.85;94445.25;4925829;28;20289;-75
2023/01/17 04:04:11;;;;;;;5.90;2.53;;;;;;;5.56;64.43;94444.28;4938571;28;20203;-75
2023/01/17 04:06:36;;;;;;;3.38;2.08;;;;;;;5.53;63.68;94440.44;4943324;28;20617;-76
2023/01/17 04:09:02;;;;;;;6.65;2.58;;;;;;;5.42;64.41;94449.38;4945429;28;20282;-75
2023/01/17 04:11:27;;;;;;;4.68;2.72;;;;;;;5.34;64.70;94448.16;4929338;28;20200;-75
2023/01/17 04:13:54;;;;;;;4.68;2.40;;;;;;;5.42;64.26;94447.56;4945854;28;20658;-76
2023/01/17 04:16:20;;;;;;;4.85;2.33;;;;;;;5.53;64.05;94450.00;4945494;28;20243;-75
2023/01/17 04:18:46;;;;;;;5.32;2.78;;;;;;;5.50;64.24;94445.38;4929233;28;20204;-76
2023/01/17 04:21:11;;;;;;;5.72;3.28;;;;;;;5.24;63.61;94443.13;4928751;28;20253;-74
2023/01/17 04:23:36;;;;;;;6.07;2.50;;;;;;;5.10;64.19;94447.44;4929436;28;20192;-75
2023/01/17 04:26:02;;;;;;;5.05;2.40;;;;;;;5.17;65.00;94448.63;4944447;28;20259;-76
2023/01/17 04:28:28;;;;;;;4.53;2.55;;;;;;;4.98;64.60;94445.25;4929240;28;20555;-74
2023/01/17 04:30:57;;;;;;;4.15;2.35;;;;;;;5.07;64.91;94439.22;4911695;28;20204;-75
2023/01/17 04:33:23;;;;;;;5.25;2.38;;;;;;;5.17;64.49;94440.13;4928686;28;20199;-75
2023/01/17 04:35:48;;;;;;;5.72;2.72;;;;;;;4.93;65.15;94437.59;4945415;28;20595;-75
2023/01/17 04:38:13;;;;;;;5.43;2.50;;;;;;;5.14;64.59;94445.84;4944884;28;20253;-75
2023/01/17 04:40:39;;;;;;;4.40;2.50;;;;;;;5.08;64.90;94445.16;4907970;28;20275;-75
2023/01/17 04:43:04;;;;;;;4.70;2.65;;;;;;;5.03;65.42;94443.38;4940238;28;20355;-75
2023/01/17 04:45:29;;;;;;;5.47;2.67;;;;;;;5.20;64.95;94447.31;4945314;28;20211;-75
2023/01/17 04:47:55;;;;;;;5.57;2.80;;;;;;;5.01;65.52;94444.72;4928771;28;20249;-75
2023/01/17 04:50:20;;;;;;;4.97;2.92;;;;;;;5.21;64.73;94454.78;4906982;28;20309;-75
2023/01/17 04:52:45;;;;;;;5.82;2.60;;;;;;;5.23;64.87;94452.69;4939669;28;20431;-75
2023/01/17 04:55:11;;;;;;;5.68;2.25;;;;;;;5.33;64.13;94451.03;4927624;28;20681;-76
2023/01/17 04:57:36;;;;;;;7.13;2.35;;;;;;;5.25;65.02;94462.75;4925508;28;20241;-76
2023/01/17 05:00:03;;;;;;;5.85;2.35;;;;;;;5.34;65.38;94468.81;4938964;28;20272;-76
2023/01/17 05:02:28;;;;;;;5.72;2.53;;;;;;;5.33;64.60;94467.28;4922621;28;20212;-76
2023/01/17 05:04:53;;;;;;;5.00;2.83;;;;;;;5.34;64.82;94466.22;4943463;28;20187;-76
2023/01/17 05:07:19;;;;;;;6.38;3.00;;;;;;;5.31;64.46;94453.13;4926644;28;20210;-75
2023/01/17 05:09:44;;;;;;;5.25;3.08;;;;;;;5.37;64.64;94462.34;4911267;28;20296;-76
2023/01/17 05:12:09;;;;;;;5.47;2.67;;;;;;;5.37;64.50;94463.09;4940468;28;20252;-76
2023/01/17 05:14:35;;;;;;;7.63;3.72;;;;;;;5.40;65.33;94459.97;4927816;28;20168;-76
2023/01/17 05:17:01;;;;;;;6.30;3.08;;;;;;;5.30;65.05;94454.94;4939433;28;20201;-76
2023/01/17 05:19:27;;;;;;;5.65;2.90;;;;;;;5.26;65.51;94451.38;4906672;28;20321;-76
2023/01/17 05:21:52;;;;;;;6.80;3.63;;;;;;;5.10;65.68;94448.22;4944176;28;20182;-76
2023/01/17 05:24:18;;;;;;;6.70;2.70;;;;;;;5.15;65.95;94453.31;4943914;28;20185;-76
2023/01/17 05:26:44;;;;;;;5.05;2.60;;;;;;;5.22;65.85;94458.88;4914834;28;20192;-76
2023/01/17 05:29:10;;;;;;;6.40;3.15;;;;;;;5.13;64.97;94459.78;4927142;28;20195;-75
2023/01/17 05:31:36;;;;;;;5.03;2.80;;;;;;;5.21;65.57;94454.78;4940375;28;20202;-75
2023/01/17 05:34:02;;;;;;;7.85;3.10;;;;;;;5.28;65.40;94453.66;4942803;28;20279;-76
2023/01/17 05:36:27;;;;;;;7.18;3.33;;;;;;;5.33;65.63;94451.03;4927697;28;20207;-76
2023/01/17 05:38:52;;;;;;;5.93;2.60;;;;;;;5.26;65.79;94443.66;4942095;28;20240;-76
2023/01/17 05:41:18;;;;;;;5.32;2.55;;;;;;;5.20;65.55;94453.25;4943310;28;20215;-76
2023/01/17 05:43:43;;;;;;;7.07;3.75;;;;;;;5.22;65.61;94455.56;4935087;28;20248;-75
2023/01/17 05:46:08;;;;;;;4.97;2.42;;;;;;;5.15;65.06;94455.13;4924496;28;20189;-76
2023/01/17 05:48:34;;;;;;;5.22;2.60;;;;;;;5.19;65.90;94458.69;4924684;28;20277;-76
2023/01/17 05:51:00;;;;;;;4.38;2.17;;;;;;;5.23;65.42;94447.53;4927781;28;20636;-75
2023/01/17 05:53:25;;;;;;;6.10;2.78;;;;;;;5.25;65.31;94449.84;4926523;28;20200;-75
2023/01/17 05:55:51;;;;;;;6.18;3.42;;;;;;;5.21;65.58;94448.88;4943416;28;20206;-76
2023/01/17 05:58:19;;;;;;;4.18;2.60;;;;;;;5.24;65.45;94448.28;4921804;28;20315;-76
2023/01/17 06:00:44;;;;;;;5.40;2.35;;;;;;;5.16;65.72;94452.28;4923348;28;20197;-76
2023/01/17 06:03:10;;;;;;;6.80;3.20;;;;;;;5.18;65.34;94452.00;4938392;28;20550;-76
2023/01/17 06:05:36;;;;;;;5.20;2.67;;;;;;;5.20;65.43;94444.75;4936864;28;20703;-76
2023/01/17 06:08:01;;;;;;;5.88;2.72;;;;;;;5.18;65.26;94439.09;4910833;28;20653;-76
2023/01/17 06:10:28;;;;;;;5.65;2.30;;;;;;;5.19;65.13;94438.81;4942897;28;20305;-76
2023/01/17 06:13:14;;;;;;;4.60;2.40;;;;;;;5.33;64.90;94433.75;4943020;28;20204;-76
2023/01/17 06:15:40;;;;;;;3.70;2.30;;;;;;;5.19;65.46;94436.25;4943046;28;20769;-75
2023/01/17 06:18:13;;;;;;;6.38;2.65;;;;;;;5.27;65.72;94444.41;4924444;28;20286;-76
2023/01/17 06:20:38;;;;;;;4.65;2.60;;;;;;;5.14;65.89;94451.00;4943047;28;20187;-76
2023/01/17 06:23:06;;;;;;;5.78;2.85;;;;;;;5.16;65.85;94441.94;4926867;28;20297;-76
2023/01/17 06:25:39;;;;;;;7.55;2.90;;;;;;;5.26;65.26;94443.66;4926764;28;20211;-76
2023/01/17 06:28:08;;;;;;;4.10;2.28;;;;;;;5.22;65.23;94440.06;4926934;28;20450;-76
2023/01/17 06:30:34;;;;;;;4.57;2.58;;;;;;;5.13;65.72;94449.47;4939254;28;20307;-76
2023/01/17 06:32:59;;;;;;;4.25;2.38;;;;;;;5.18;65.95;94444.25;4927184;28;20729;-76
2023/01/17 06:35:25;;;;;;;3.97;2.47;;;;;;;5.17;65.60;94455.59;4936354;28;20203;-76
2023/01/17 06:37:54;;;;;;;6.03;2.88;;;;;;;5.13;65.58;94450.25;4942822;28;20219;-76
2023/01/17 06:40:20;;;;;;;5.78;2.13;;;;;;;5.18;66.07;94452.00;4923204;28;20208;-76
2023/01/17 06:42:46;;;;;;;6.28;2.17;;;;;;;5.14;66.12;94458.75;4922443;28;20286;-76
2023/01/17 06:45:11;;;;;;;6.15;3.25;;;;;;;5.15;65.74;94453.31;4919572;28;20415;-76
2023/01/17 06:47:40;;;;;;;4.65;2.67;;;;;;;5.20;65.91;94460.22;4926359;28;20174;-76
2023/01/17 06:50:07;;;;;;;5.07;2.90;;;;;;;5.13;65.73;94457.22;4946063;28;20194;-76
2023/01/17 06:52:33;;;;;;;5.18;2.83;;;;;;;5.09;66.36;94456.22;4927235;28;20690;-76
2023/01/17 06:54:58;;;;;;;4.40;2.35;;;;;;;5.07;66.27;94459.06;4940915;28;20286;-76
2023/01/17 06:57:23;;;;;;;5.82;2.75;;;;;;;5.03;65.93;94447.78;4944439;28;20366;-76
2023/01/17 06:59:49;;;;;;;6.65;2.83;;;;;;;5.01;66.26;94442.13;4934885;28;20301;-76
2023/01/17 07:02:14;;;;;;;5.03;2.85;;;;;;;5.00;66.21;94438.81;4932298;28;20302;-76
2023/01/17 07:04:39;;;;;;;5.20;2.80;;;;;;;4.98;65.74;94434.94;4943045;28;20212;-76
2023/01/17 07:07:05;;;;;;;6.47;2.72;;;;;;;4.97;66.14;94441.94;4926885;28;20194;-76
2023/01/17 07:09:30;;;;;;;5.95;2.95;;;;;;;4.97;65.25;94434.19;4936836;28;20269;-76
2023/01/17 07:12:00;;;;;;;7.20;2.90;;;;;;;4.97;66.23;94435.97;4919725;28;20366;-76
2023/01/17 07:14:26;;;;;;;6.50;2.10;;;;;;;4.98;66.14;94440.88;4942663;28;20222;-76
2023/01/17 07:16:52;;;;;;;5.68;3.10;;;;;;;4.96;66.21;94440.38;4940818;28;20217;-76
2023/01/17 07:19:17;;;;;;;6.20;3.20;;;;;;;4.99;65.64;94439.06;4920812;28;20373;-76
2023/01/17 07:21:42;;;;;;;7.05;2.53;;;;;;;4.94;66.51;94439.91;4946864;28;20203;-76
2023/01/17 07:24:08;;;;;;;6.03;2.33;;;;;;;4.90;66.42;94433.75;4946657;28;20665;-76
2023/01/17 07:26:36;;;;;;;6.55;2.92;;;;;;;4.96;66.82;94431.88;4928535;28;20627;-76
2023/01/17 07:29:04;;;;;;;6.47;3.05;;;;;;;5.01;65.92;94431.81;4940978;28;20166;-76
2023/01/17 07:31:34;;;;;;;6.60;3.05;;;;;;;5.05;66.34;94428.44;4913079;28;20298;-76
2023/01/17 07:33:59;;;;;;;5.95;3.20;;;;;;;5.09;65.99;94426.06;4945884;28;20269;-76
2023/01/17 07:36:25;;;;;;;8.18;3.22;;;;;;;5.03;66.08;94420.19;4922228;28;20378;-76
2023/01/17 07:38:50;;;;;;;7.50;3.22;;;;;;;5.09;65.82;94420.13;4944964;28;20161;-76
2023/01/17 07:41:16;;;;;;;7.82;3.00;;;;;;;5.10;66.08;94419.84;4943766;28;20181;-76
2023/01/17 07:43:41;;;;;;;9.35;3.60;;;;;;;5.11;65.82;94416.22;4930131;28;20207;-75
2023/01/17 07:46:06;;;;;;;5.88;2.90;;;;;;;5.10;65.90;94412.09;4944069;28;20195;-76
2023/01/17 07:48:32;;;;;;;6.18;2.90;;;;;;;5.09;66.14;94420.91;4937178;28;20207;-76
2023/01/17 07:50:57;;;;;;;6.30;3.20;;;;;;;5.09;66.25;94420.91;4929882;28;20207;-76
2023/01/17 07:53:24;;;;;;;8.45;4.03;;;;;;;5.07;66.31;94418.59;4928636;28;20204;-76
2023/01/17 07:55:50;;;;;;;6.10;3.15;;;;;;;5.15;65.52;94419.78;4940341;28;20219;-76
2023/01/17 07:58:16;;;;;;;5.68;2.85;;;;;;;5.15;66.10;94414.63;4944517;28;20543;-75
2023/01/17 08:00:43;;;;;;;5.03;3.00;;;;;;;5.16;66.25;94413.59;4914872;28;20203;-76
2023/01/17 08:03:12;;;;;;;3.17;1.75;;;;;;;5.22;65.65;94406.53;4917345;28;20592;-75
2023/01/17 08:05:37;;;;;;;5.55;2.40;;;;;;;5.16;65.30;94405.09;4917065;28;20208;-76
2023/01/17 08:08:03;;;;;;;6.22;2.03;;;;;;;5.15;65.54;94409.47;4922640;28;20650;-76
2023/01/17 08:10:28;;;;;;;5.15;2.75;;;;;;;5.16;65.47;94405.09;4946766;28;20703;-76
2023/01/17 08:12:54;;;;;;;5.20;1.80;;;;;;;5.11;65.44;94408.50;4929651;28;20084;-76
2023/01/17 08:15:19;;;;;;;4.30;2.20;;;;;;;5.07;65.58;94397.19;4928605;28;20193;-76
2023/01/17 08:17:45;;;;;;;7.25;2.17;;;;;;;5.03;65.86;94391.81;4929831;28;20626;-76
2023/01/17 08:20:11;;;;;;;4.03;2.33;;;;;;;4.96;65.66;94391.38;4928950;28;20293;-76
2023/01/17 08:22:36;;;;;;;7.40;3.15;;;;;;;4.93;65.71;94389.34;4947654;28;20196;-76
2023/01/17 08:25:02;;;;;;;4.75;2.78;;;;;;;4.93;66.14;94391.19;4923253;28;20665;-76
2023/01/17 08:27:28;;;;;;;7.47;3.78;;;;;;;5.02;66.37;94394.66;4943644;28;20621;-76
2023/01/17 08:29:53;;;;;;;6.72;4.25;;;;;;;5.03;66.34;94391.81;4931352;28;20022;-75
2023/01/17 08:32:20;;;;;;;9.13;3.78;;;;;;;5.03;66.48;94386.66;4912249;28;20607;-75
2023/01/17 08:34:46;;;;;;;6.68;2.50;;;;;;;5.18;65.67;94392.69;4909697;28;20181;-76
2023/01/17 08:37:11;;;;;;;5.18;2.75;;;;;;;5.23;65.97;94390.03;4922863;28;20191;-75
2023/01/17 08:39:37;;;;;;;8.00;3.30;;;;;;;5.28;66.42;94389.16;4938353;28;20630;-76
2023/01/17 08:42:02;;;;;;;4.07;2.78;;;;;;;5.37;66.56;94387.50;4917953;28;20260;-75
2023/01/17 08:44:27;;;;;;;6.00;2.78;;;;;;;5.54;65.37;94394.75;4939653;28;20547;-76
2023/01/17 08:46:53;;;;;;;3.92;2.60;;;;;;;5.59;65.55;94392.09;4903791;28;20329;-76
2023/01/17 08:49:18;;;;;;;5.85;2.65;;;;;;;5.60;65.72;94396.19;4928556;28;20427;-76
2023/01/17 08:51:43;;;;;;;8.35;3.35;;;;;;;5.66;65.63;94395.09;4928714;28;20401;-75
2023/01/17 08:54:11;;;;;;;5.07;3.03;;;;;;;5.71;65.90;94405.34;4944877;28;20244;-75
2023/01/17 08:56:37;;;;;;;5.72;2.95;;;;;;;5.72;65.57;94399.13;4928965;28;20252;-76
2023/01/17 08:59:03;;;;;;;6.15;2.80;;;;;;;5.72;65.20;94388.78;4946206;28;20281;-76
2023/01/17 09:01:28;;;;;;;8.55;2.47;;;;;;;5.69;64.92;94391.16;4923733;28;20342;-75
2023/01/17 09:03:53;;;;;;;5.43;2.40;;;;;;;5.59;64.74;94392.88;4924404;28;20617;-75
2023/01/17 09:06:19;;;;;;;5.28;2.53;;;;;;;5.60;65.32;94385.88;4944556;28;20288;-75
2023/01/17 09:08:45;;;;;;;4.28;1.92;;;;;;;5.78;64.92;94395.41;4944804;28;20272;-76
2023/01/17 09:11:13;;;;;;;5.25;1.73;;;;;;;5.78;65.61;94399.81;4944659;28;20297;-76
2023/01/17 09:13:38;;;;;;;5.93;2.42;;;;;;;5.72;65.33;94395.78;4912264;28;20283;-75
2023/01/17 09:16:05;;;;;;;3.65;1.85;;;;;;;5.70;65.14;94403.78;4936226;28;20569;-76
2023/01/17 09:18:31;;;;;;;3.33;1.90;;;;;;;5.78;64.87;94402.41;4916315;28;20501;-74
2023/01/17 09:20:58;;;;;;;3.42;1.52;;;;;;;5.62;65.15;94397.47;4916522;28;20207;-75
2023/01/17 09:23:28;;;;;;;4.80;2.00;;;;;;;5.86;64.51;94401.75;4928061;28;20283;-75
2023/01/17 09:25:58;;;;;;;2.80;1.77;;;;;;;5.86;64.75;94406.16;4911891;28;20624;-75
2023/01/17 09:28:25;;;;;;;4.03;2.08;;;;;;;5.73;64.15;94413.56;4945798;28;20280;-77
2023/01/17 09:30:50;;;;;;;5.30;2.10;;;;;;;5.61;64.59;94413.22;4924531;28;20200;-75
2023/01/17 09:33:16;;;;;;;4.50;2.10;;;;;;;5.76;64.57;94412.25;4936667;28;20598;-74
2023/01/17 09:35:42;;;;;;;5.68;2.17;;;;;;;5.85;63.87;94414.97;4922350;28;20208;-75
2023/01/17 09:38:08;;;;;;;4.40;2.03;;;;;;;5.92;63.79;94420.53;4925224;28;20271;-75
2023/01/17 09:40:36;;;;;;;4.45;1.80;;;;;;;5.86;63.24;94417.25;4911611;28;20286;-76
2023/01/17 09:43:04;;;;;;;4.10;2.17;;;;;;;5.89;64.37;94413.34;4911565;28;20199;-75
2023/01/17 09:45:31;;;;;;;4.03;1.65;;;;;;;5.92;63.41;94410.19;4944100;28;20203;-75
2023/01/17 09:47:58;;;;;;;6.28;2.55;;;;;;;5.86;64.92;94417.25;4928395;28;20318;-75
2023/01/17 09:50:26;;;;;;;4.78;2.40;;;;;;;5.85;64.25;94414.97;4943824;28;20191;-75
2023/01/17 09:53:15;;;;;;;4.57;2.50;;;;;;;6.10;64.21;94414.59;4943938;28;20219;-75
2023/01/17 09:55:52;;;;;;;6.18;2.47;;;;;;;6.03;63.44;94416.75;4944477;28;20204;-75
2023/01/17 09:58:33;;;;;;;5.47;2.17;;;;;;;6.13;64.29;94410.66;4927513;28;20715;-75
2023/01/17 10:01:26;;;;;;;3.72;1.70;;;;;;;6.16;64.50;94405.69;4926733;28;20287;-75
2023/01/17 10:04:11;;;;;;;4.05;1.95;;;;;;;6.22;63.13;94410.75;4920006;28;20153;-75
2023/01/17 10:06:37;;;;;;;4.20;1.60;;;;;;;6.15;64.04;94414.50;4939345;28;20349;-76
2023/01/17 10:09:20;;;;;;;3.17;1.80;;;;;;;6.29;63.54;94413.72;4945294;28;20258;-75
2023/01/17 10:11:52;;;;;;;7.32;2.00;;;;;;;6.41;63.47;94408.09;4928335;28;20260;-75
2023/01/17 10:14:39;;;;;;;5.15;2.08;;;;;;;6.45;63.80;94412.44;4945299;28;20206;-75
2023/01/17 10:17:19;;;;;;;4.55;2.10;;;;;;;6.46;62.95;94408.81;4945675;28;20215;-76
2023/01/17 10:19:57;;;;;;;2.83;1.42;;;;;;;6.46;61.90;94408.81;4945472;28;20736;-75
2023/01/17 10:23:20;;;;;;;4.53;1.52;;;;;;;6.49;62.85;94389.34;4927036;28;20211;-75
2023/01/17 10:26:09;;;;;;;5.18;1.40;;;;;;;6.48;61.40;94391.19;4887095;28;20263;-75
2023/01/17 10:28:49;;;;;;;4.13;1.58;;;;;;;6.59;60.98;94385.81;4899328;28;20196;-75
2023/01/17 10:31:19;;;;;;;2.33;1.42;;;;;;;6.67;61.00;94374.81;4929313;28;20196;-75
2023/01/17 10:33:51;;;;;;;2.97;1.05;;;;;;;6.78;60.58;94378.72;4930731;28;20211;-76
2023/01/17 10:36:27;;;;;;;5.07;1.88;;;;;;;6.91;60.86;94382.38;4947300;28;20367;-75
2023/01/17 10:39:03;;;;;;;4.30;1.52;;;;;;;6.94;60.64;94371.44;4931058;28;20164;-76
2023/01/17 10:41:32;;;;;;;4.03;1.40;;;;;;;6.96;58.89;94374.50;4915741;28;20657;-76
2023/01/17 10:44:22;;;;;;;2.33;1.00;;;;;;;7.11;58.09;94365.66;4947523;28;20184;-75
2023/01/17 10:47:01;;;;;;;3.65;1.02;;;;;;;6.90;57.78;94371.25;4944203;28;20203;-75
2023/01/17 10:49:27;;;;;;;4.47;1.20;;;;;;;6.81;58.81;94357.47;4938509;28;20223;-76
2023/01/17 10:52:12;;;;;;;3.45;1.10;;;;;;;7.04;56.94;94360.09;4946675;28;20625;-75
2023/01/17 10:54:55;;;;;;;3.60;1.00;;;;;;;6.91;57.59;94364.25;4946602;28;20610;-76
2023/01/17 10:57:23;;;;;;;1.58;0.90;;;;;;;6.78;56.90;94349.53;4930160;28;20769;-76
2023/01/17 10:59:48;;;;;;;3.25;1.15;;;;;;;6.65;57.59;94351.84;4946789;28;20336;-75
2023/01/17 11:02:22;;;;;;;4.60;1.13;;;;;;;7.00;57.00;94348.81;4920917;28;20300;-76
2023/01/17 11:04:53;;;;;;;2.75;0.80;;;;;;;6.99;56.41;94350.66;4947103;28;20604;-75
2023/01/17 11:07:23;;;;;;;2.45;0.90;;;;;;;7.00;57.35;94344.41;4928418;28;20191;-75
2023/01/17 11:09:51;;;;;;;2.22;0.65;;;;;;;6.99;56.59;94344.69;4937955;28;20264;-75
2023/01/17 11:12:27;;;;;;;2.25;0.90;;;;;;;7.07;57.26;94351.78;4904331;28;20195;-75
2023/01/17 11:14:57;;;;;;;1.58;0.70;;;;;;;6.92;56.48;94348.47;4946985;28;20281;-77
2023/01/17 11:17:23;;;;;;;3.33;0.75;;;;;;;6.92;54.95;94353.63;4932142;28;20641;-75
2023/01/17 11:19:50;;;;;;;1.45;0.73;;;;;;;7.08;55.61;94355.91;4946384;28;20308;-76
2023/01/17 11:22:16;;;;;;;4.35;1.10;;;;;;;7.10;56.22;94348.59;4945903;28;20199;-76
2023/01/17 11:24:50;;;;;;;2.65;0.65;;;;;;;7.28;54.90;94344.31;4929767;28;20294;-76
2023/01/17 11:27:26;;;;;;;1.27;0.70;;;;;;;7.11;54.27;94335.38;4945892;28;20195;-75
2023/01/17 11:30:24;;;;;;;1.83;0.70;;;;;;;7.16;55.18;94336.31;4945236;28;20203;-76
2023/01/17 11:33:05;;;;;;;2.17;1.17;;;;;;;7.12;54.61;94328.38;4946278;28;20570;-76
2023/01/17 11:35:44;;;;;;;3.10;1.02;;;;;;;6.94;54.72;94314.53;4944758;28;20293;-75
2023/01/17 11:38:12;;;;;;;1.98;0.95;;;;;;;6.89;52.66;94310.25;4947712;28;20297;-76
2023/01/17 11:40:43;;;;;;;1.67;0.63;;;;;;;7.01;54.00;94304.56;4945820;28;20191;-75
2023/01/17 11:43:13;;;;;;;2.20;0.70;;;;;;;7.16;52.61;94305.25;4912929;28;20294;-76
2023/01/17 11:45:39;;;;;;;1.75;0.60;;;;;;;7.09;52.93;94300.50;4946903;28;20248;-75
2023/01/17 11:48:07;;;;;;;3.05;1.23;;;;;;;7.32;54.62;94294.28;4945450;28;20199;-76
2023/01/17 11:50:43;;;;;;;1.67;1.00;;;;;;;7.24;54.49;94292.41;4946152;28;20319;-75
2023/01/17 11:53:31;;;;;;;3.08;1.05;;;;;;;7.21;54.38;94295.56;4945607;28;20173;-75
2023/01/17 11:55:58;;;;;;;1.90;0.80;;;;;;;7.06;54.79;94288.94;4945850;28;20219;-76
2023/01/17 11:58:25;;;;;;;3.33;0.60;;;;;;;7.11;54.91;94293.97;4929074;28;20200;-75
2023/01/17 12:01:20;;;;;;;3.75;1.23;;;;;;;7.30;54.50;94280.13;4945184;28;20215;-75
2023/01/17 12:04:14;;;;;;;1.50;0.73;;;;;;;7.37;53.17;94277.09;4934146;28;20244;-75
2023/01/17 12:06:55;;;;;;;2.78;0.80;;;;;;;7.39;53.10;94269.81;4939249;28;20187;-75
2023/01/17 12:09:23;;;;;;;1.30;0.70;;;;;;;7.36;53.22;94270.41;4944784;28;20298;-76
2023/01/17 12:15:08;;;;;;;2.03;0.82;;;;;;;7.42;54.50;94257.06;4933047;28;20211;-75
2023/01/17 12:17:49;;;;;;;1.40;0.80;;;;;;;7.31;55.62;94261.69;4934713;28;20086;-75
2023/01/17 12:20:20;;;;;;;4.10;0.90;;;;;;;7.37;54.79;94244.22;4937734;28;20629;-76
2023/01/17 12:23:12;;;;;;;2.05;1.02;;;;;;;7.64;54.41;94240.72;4945212;28;20288;-76
2023/01/17 12:26:00;;;;;;;2.47;0.90;;;;;;;7.71;56.03;94236.94;4894006;28;20292;-76
2023/01/17 12:28:59;;;;;;;3.03;1.15;;;;;;;7.63;55.94;94228.81;4945164;28;20195;-76
2023/01/17 12:31:25;;;;;;;2.60;1.10;;;;;;;7.53;56.18;94231.66;4944544;28;20213;-75
2023/01/17 12:34:33;;;;;;;3.15;1.40;;;;;;;7.63;55.81;94226.22;4928249;28;20300;-75
2023/01/17 12:37:31;;;;;;;2.35;1.30;;;;;;;7.61;56.66;94218.00;4918335;28;20177;-75
2023/01/17 12:39:58;;;;;;;2.03;0.93;;;;;;;7.53;55.61;94223.16;4928523;28;20572;-76
2023/01/17 12:42:27;;;;;;;2.33;0.93;;;;;;;7.57;54.62;94218.88;4946659;28;20692;-76
2023/01/17 12:45:12;;;;;;;1.95;0.85;;;;;;;7.55;55.58;94218.44;4929441;28;20688;-75
2023/01/17 12:47:45;;;;;;;2.40;1.08;;;;;;;7.58;55.93;94218.59;4937676;28;20301;-75
2023/01/17 12:50:22;;;;;;;2.55;0.77;;;;;;;7.56;53.55;94233.66;4910453;28;20564;-76
2023/01/17 12:53:18;;;;;;;3.28;2.15;;;;;;;7.60;54.54;94226.81;4945050;28;20273;-75
2023/01/17 12:55:55;;;;;;;5.50;1.70;;;;;;;7.64;54.51;94232.94;4907359;28;20212;-76
2023/01/17 12:58:29;;;;;;;1.40;0.75;;;;;;;7.22;54.81;94222.06;4927915;28;20223;-75
2023/01/17 13:01:02;;;;;;;1.15;0.88;;;;;;;7.37;55.43;94220.94;4912031;28;20192;-75
2023/01/17 13:03:40;;;;;;;3.30;1.70;;;;;;;7.30;55.82;94213.59;4917812;28;20402;-77
2023/01/17 13:06:06;;;;;;;1.83;0.95;;;;;;;7.16;57.10;94205.13;4897450;28;20721;-77
2023/01/17 13:08:40;;;;;;;3.33;1.40;;;;;;;7.20;54.31;94202.72;4947870;28;20307;-77
2023/01/17 13:11:13;;;;;;;2.53;0.90;;;;;;;7.10;56.71;94195.97;4931545;28;20641;-78
2023/01/17 13:13:40;;;;;;;2.83;1.20;;;;;;;6.87;56.01;94190.00;4924525;28;20280;-77
2023/01/17 13:16:14;;;;;;;4.28;1.05;;;;;;;6.77;56.85;94179.91;4913585;28;20583;-78
2023/01/17 13:18:45;;;;;;;3.45;0.98;;;;;;;6.67;56.82;94175.75;4928808;28;20294;-77
2023/01/17 13:21:30;;;;;;;2.20;0.82;;;;;;;6.92;56.71;94171.78;4930592;28;20045;-77